sensor_id;sensor_type;location;lat;lon;timestamp;pressure;altitude;pressure_sealevel;temperature
11321;BMP180;5715;48.234;14.320;2023-06-14T00:01:15;98108.00;;;20.90
11321;BMP180;5715;48.234;14.320;2023-06-14T00:04:02;98114.00;;;20.80
11321;BMP180;5715;48.234;14.320;2023-06-14T00:06:50;98110.00;;;20.30
11321;BMP180;5715;48.234;14.320;2023-06-14T00:09:38;98110.00;;;20.00
11321;BMP180;5715;48.234;14.320;2023-06-14T00:12:25;98116.00;;;19.80
11321;BMP180;5715;48.234;14.320;2023-06-14T00:15:13;98105.00;;;19.70
11321;BMP180;5715;48.234;14.320;2023-06-14T00:18:02;98106.00;;;19.60
11321;BMP180;5715;48.234;14.320;2023-06-14T00:20:50;98111.00;;;19.50
11321;BMP180;5715;48.234;14.320;2023-06-14T00:23:39;98107.00;;;19.30
11321;BMP180;5715;48.234;14.320;2023-06-14T00:26:26;98116.00;;;19.20
11321;BMP180;5715;48.234;14.320;2023-06-14T00:29:14;98110.00;;;19.10
11321;BMP180;5715;48.234;14.320;2023-06-14T00:32:02;98109.00;;;19.00
11321;BMP180;5715;48.234;14.320;2023-06-14T00:34:50;98110.00;;;19.00
11321;BMP180;5715;48.234;14.320;2023-06-14T00:37:37;98110.00;;;19.00
11321;BMP180;5715;48.234;14.320;2023-06-14T00:40:25;98107.00;;;18.90
11321;BMP180;5715;48.234;14.320;2023-06-14T00:43:13;98104.00;;;18.80
11321;BMP180;5715;48.234;14.320;2023-06-14T00:46:00;98098.00;;;18.80
11321;BMP180;5715;48.234;14.320;2023-06-14T00:48:49;98102.00;;;18.80
11321;BMP180;5715;48.234;14.320;2023-06-14T00:51:37;98110.00;;;18.70
11321;BMP180;5715;48.234;14.320;2023-06-14T00:54:24;98092.00;;;18.60
11321;BMP180;5715;48.234;14.320;2023-06-14T00:57:13;98099.00;;;18.60
11321;BMP180;5715;48.234;14.320;2023-06-14T01:00:00;98098.00;;;18.50
11321;BMP180;5715;48.234;14.320;2023-06-14T01:02:49;98100.00;;;18.40
11321;BMP180;5715;48.234;14.320;2023-06-14T01:05:37;98093.00;;;18.30
11321;BMP180;5715;48.234;14.320;2023-06-14T01:12:15;98095.00;;;18.20
11321;BMP180;5715;48.234;14.320;2023-06-14T01:15:06;98104.00;;;18.20
11321;BMP180;5715;48.234;14.320;2023-06-14T01:17:55;98098.00;;;18.10
11321;BMP180;5715;48.234;14.320;2023-06-14T01:20:50;98090.00;;;18.10
11321;BMP180;5715;48.234;14.320;2023-06-14T01:23:38;98097.00;;;18.10
11321;BMP180;5715;48.234;14.320;2023-06-14T01:26:26;98099.00;;;18.00
11321;BMP180;5715;48.234;14.320;2023-06-14T01:29:16;98105.00;;;17.90
11321;BMP180;5715;48.234;14.320;2023-06-14T01:32:06;98099.00;;;17.80
11321;BMP180;5715;48.234;14.320;2023-06-14T01:34:54;98099.00;;;17.80
11321;BMP180;5715;48.234;14.320;2023-06-14T01:37:44;98107.00;;;17.90
11321;BMP180;5715;48.234;14.320;2023-06-14T01:40:35;98105.00;;;17.80
11321;BMP180;5715;48.234;14.320;2023-06-14T01:43:25;98099.00;;;17.70
11321;BMP180;5715;48.234;14.320;2023-06-14T01:46:15;98109.00;;;17.70
11321;BMP180;5715;48.234;14.320;2023-06-14T01:49:03;98103.00;;;17.80
11321;BMP180;5715;48.234;14.320;2023-06-14T01:51:51;98089.00;;;17.80
11321;BMP180;5715;48.234;14.320;2023-06-14T01:54:38;98098.00;;;17.70
11321;BMP180;5715;48.234;14.320;2023-06-14T01:57:30;98101.00;;;17.80
11321;BMP180;5715;48.234;14.320;2023-06-14T02:00:18;98099.00;;;17.70
11321;BMP180;5715;48.234;14.320;2023-06-14T02:03:05;98104.00;;;17.70
11321;BMP180;5715;48.234;14.320;2023-06-14T02:05:53;98103.00;;;17.80
11321;BMP180;5715;48.234;14.320;2023-06-14T02:08:43;98102.00;;;17.70
11321;BMP180;5715;48.234;14.320;2023-06-14T02:11:30;98101.00;;;17.80
11321;BMP180;5715;48.234;14.320;2023-06-14T02:14:18;98102.00;;;17.80
11321;BMP180;5715;48.234;14.320;2023-06-14T02:17:06;98101.00;;;17.90
11321;BMP180;5715;48.234;14.320;2023-06-14T02:19:53;98102.00;;;17.90
11321;BMP180;5715;48.234;14.320;2023-06-14T02:22:41;98105.00;;;18.00
11321;BMP180;5715;48.234;14.320;2023-06-14T02:25:29;98106.00;;;17.90
11321;BMP180;5715;48.234;14.320;2023-06-14T02:28:17;98103.00;;;17.90
11321;BMP180;5715;48.234;14.320;2023-06-14T02:31:04;98110.00;;;17.90
11321;BMP180;5715;48.234;14.320;2023-06-14T02:33:52;98103.00;;;18.00
11321;BMP180;5715;48.234;14.320;2023-06-14T02:36:39;98113.00;;;18.00
11321;BMP180;5715;48.234;14.320;2023-06-14T02:39:29;98106.00;;;17.70
11321;BMP180;5715;48.234;14.320;2023-06-14T02:42:17;98117.00;;;17.50
11321;BMP180;5715;48.234;14.320;2023-06-14T02:45:05;98120.00;;;17.40
11321;BMP180;5715;48.234;14.320;2023-06-14T02:47:53;98120.00;;;17.70
11321;BMP180;5715;48.234;14.320;2023-06-14T02:50:43;98123.00;;;17.70
11321;BMP180;5715;48.234;14.320;2023-06-14T02:53:30;98121.00;;;17.80
11321;BMP180;5715;48.234;14.320;2023-06-14T02:56:18;98124.00;;;17.70
11321;BMP180;5715;48.234;14.320;2023-06-14T02:59:07;98121.00;;;17.80
11321;BMP180;5715;48.234;14.320;2023-06-14T03:01:56;98125.00;;;17.90
11321;BMP180;5715;48.234;14.320;2023-06-14T03:04:44;98122.00;;;17.90
11321;BMP180;5715;48.234;14.320;2023-06-14T03:07:34;98129.00;;;17.90
11321;BMP180;5715;48.234;14.320;2023-06-14T03:10:21;98124.00;;;17.80
11321;BMP180;5715;48.234;14.320;2023-06-14T03:13:09;98130.00;;;17.80
11321;BMP180;5715;48.234;14.320;2023-06-14T03:15:58;98132.00;;;17.90
11321;BMP180;5715;48.234;14.320;2023-06-14T03:18:51;98125.00;;;17.90
11321;BMP180;5715;48.234;14.320;2023-06-14T03:21:39;98122.00;;;17.90
11321;BMP180;5715;48.234;14.320;2023-06-14T03:24:32;98124.00;;;18.00
11321;BMP180;5715;48.234;14.320;2023-06-14T03:27:25;98127.00;;;17.90
11321;BMP180;5715;48.234;14.320;2023-06-14T03:30:13;98121.00;;;18.00
11321;BMP180;5715;48.234;14.320;2023-06-14T03:33:01;98129.00;;;18.20
11321;BMP180;5715;48.234;14.320;2023-06-14T03:35:49;98133.00;;;18.00
11321;BMP180;5715;48.234;14.320;2023-06-14T03:38:37;98129.00;;;17.90
11321;BMP180;5715;48.234;14.320;2023-06-14T03:41:25;98133.00;;;18.10
11321;BMP180;5715;48.234;14.320;2023-06-14T03:44:18;98139.00;;;18.20
11321;BMP180;5715;48.234;14.320;2023-06-14T03:47:06;98146.00;;;18.70
11321;BMP180;5715;48.234;14.320;2023-06-14T03:49:54;98151.00;;;19.10
11321;BMP180;5715;48.234;14.320;2023-06-14T03:52:41;98152.00;;;20.20
11321;BMP180;5715;48.234;14.320;2023-06-14T03:55:31;98144.00;;;20.50
11321;BMP180;5715;48.234;14.320;2023-06-14T03:58:21;98156.00;;;20.50
11321;BMP180;5715;48.234;14.320;2023-06-14T04:01:09;98156.00;;;20.70
11321;BMP180;5715;48.234;14.320;2023-06-14T04:03:57;98158.00;;;20.80
11321;BMP180;5715;48.234;14.320;2023-06-14T04:06:45;98161.00;;;20.80
11321;BMP180;5715;48.234;14.320;2023-06-14T04:09:35;98169.00;;;20.70
11321;BMP180;5715;48.234;14.320;2023-06-14T04:12:23;98173.00;;;20.80
11321;BMP180;5715;48.234;14.320;2023-06-14T04:15:10;98169.00;;;20.80
11321;BMP180;5715;48.234;14.320;2023-06-14T04:18:01;98171.00;;;20.90
11321;BMP180;5715;48.234;14.320;2023-06-14T04:20:49;98173.00;;;21.20
11321;BMP180;5715;48.234;14.320;2023-06-14T04:23:37;98176.00;;;21.50
11321;BMP180;5715;48.234;14.320;2023-06-14T04:26:25;98176.00;;;21.70
11321;BMP180;5715;48.234;14.320;2023-06-14T04:29:17;98189.00;;;22.70
11321;BMP180;5715;48.234;14.320;2023-06-14T04:32:07;98191.00;;;23.80
11321;BMP180;5715;48.234;14.320;2023-06-14T04:34:57;98187.00;;;24.60
11321;BMP180;5715;48.234;14.320;2023-06-14T04:37:46;98192.00;;;25.60
11321;BMP180;5715;48.234;14.320;2023-06-14T04:40:33;98193.00;;;26.60
11321;BMP180;5715;48.234;14.320;2023-06-14T04:43:39;98199.00;;;27.30
11321;BMP180;5715;48.234;14.320;2023-06-14T04:46:28;98201.00;;;27.80
11321;BMP180;5715;48.234;14.320;2023-06-14T04:49:16;98202.00;;;27.70
11321;BMP180;5715;48.234;14.320;2023-06-14T04:52:05;98195.00;;;27.80
11321;BMP180;5715;48.234;14.320;2023-06-14T04:54:53;98202.00;;;27.70
11321;BMP180;5715;48.234;14.320;2023-06-14T04:57:41;98216.00;;;28.10
11321;BMP180;5715;48.234;14.320;2023-06-14T05:00:30;98208.00;;;28.90
11321;BMP180;5715;48.234;14.320;2023-06-14T05:03:17;98214.00;;;30.10
11321;BMP180;5715;48.234;14.320;2023-06-14T05:06:06;98222.00;;;30.30
11321;BMP180;5715;48.234;14.320;2023-06-14T05:08:54;98213.00;;;30.90
11321;BMP180;5715;48.234;14.320;2023-06-14T05:11:41;98222.00;;;30.80
11321;BMP180;5715;48.234;14.320;2023-06-14T05:14:32;98228.00;;;31.80
11321;BMP180;5715;48.234;14.320;2023-06-14T05:17:19;98229.00;;;32.20
11321;BMP180;5715;48.234;14.320;2023-06-14T05:20:08;98231.00;;;33.20
11321;BMP180;5715;48.234;14.320;2023-06-14T05:22:57;98233.00;;;33.20
11321;BMP180;5715;48.234;14.320;2023-06-14T05:25:46;98235.00;;;32.90
11321;BMP180;5715;48.234;14.320;2023-06-14T05:28:33;98237.00;;;33.30
11321;BMP180;5715;48.234;14.320;2023-06-14T05:31:22;98235.00;;;33.00
11321;BMP180;5715;48.234;14.320;2023-06-14T05:34:10;98243.00;;;32.40
11321;BMP180;5715;48.234;14.320;2023-06-14T05:36:58;98243.00;;;31.90
11321;BMP180;5715;48.234;14.320;2023-06-14T05:39:46;98239.00;;;32.10
11321;BMP180;5715;48.234;14.320;2023-06-14T05:42:33;98246.00;;;32.40
11321;BMP180;5715;48.234;14.320;2023-06-14T05:45:21;98247.00;;;31.90
11321;BMP180;5715;48.234;14.320;2023-06-14T05:48:08;98249.00;;;31.70
11321;BMP180;5715;48.234;14.320;2023-06-14T05:50:56;98249.00;;;31.70
11321;BMP180;5715;48.234;14.320;2023-06-14T05:53:45;98253.00;;;32.00
11321;BMP180;5715;48.234;14.320;2023-06-14T05:56:33;98256.00;;;32.20
11321;BMP180;5715;48.234;14.320;2023-06-14T05:59:21;98260.00;;;31.70
11321;BMP180;5715;48.234;14.320;2023-06-14T06:02:08;98257.00;;;33.00
11321;BMP180;5715;48.234;14.320;2023-06-14T06:04:56;98260.00;;;32.30
11321;BMP180;5715;48.234;14.320;2023-06-14T06:07:44;98269.00;;;31.80
11321;BMP180;5715;48.234;14.320;2023-06-14T06:10:35;98262.00;;;32.60
11321;BMP180;5715;48.234;14.320;2023-06-14T06:13:23;98262.00;;;32.20
11321;BMP180;5715;48.234;14.320;2023-06-14T06:16:10;98266.00;;;31.80
11321;BMP180;5715;48.234;14.320;2023-06-14T06:18:58;98264.00;;;31.60
11321;BMP180;5715;48.234;14.320;2023-06-14T06:21:46;98263.00;;;31.30
11321;BMP180;5715;48.234;14.320;2023-06-14T06:24:34;98270.00;;;29.90
11321;BMP180;5715;48.234;14.320;2023-06-14T06:27:22;98262.00;;;29.00
11321;BMP180;5715;48.234;14.320;2023-06-14T06:30:10;98266.00;;;28.40
11321;BMP180;5715;48.234;14.320;2023-06-14T06:32:58;98267.00;;;27.90
11321;BMP180;5715;48.234;14.320;2023-06-14T06:35:46;98273.00;;;27.70
11321;BMP180;5715;48.234;14.320;2023-06-14T06:38:37;98270.00;;;27.60
11321;BMP180;5715;48.234;14.320;2023-06-14T06:41:24;98267.00;;;27.30
11321;BMP180;5715;48.234;14.320;2023-06-14T06:44:12;98272.00;;;27.10
11321;BMP180;5715;48.234;14.320;2023-06-14T06:47:00;98283.00;;;27.20
11321;BMP180;5715;48.234;14.320;2023-06-14T06:49:47;98272.00;;;27.20
11321;BMP180;5715;48.234;14.320;2023-06-14T06:52:35;98274.00;;;26.80
11321;BMP180;5715;48.234;14.320;2023-06-14T06:55:23;98283.00;;;27.30
11321;BMP180;5715;48.234;14.320;2023-06-14T06:58:13;98295.00;;;27.40
11321;BMP180;5715;48.234;14.320;2023-06-14T07:01:01;98286.00;;;27.30
11321;BMP180;5715;48.234;14.320;2023-06-14T07:03:48;98288.00;;;27.50
11321;BMP180;5715;48.234;14.320;2023-06-14T07:06:36;98284.00;;;27.60
11321;BMP180;5715;48.234;14.320;2023-06-14T07:09:24;98290.00;;;27.30
11321;BMP180;5715;48.234;14.320;2023-06-14T07:12:12;98290.00;;;27.60
11321;BMP180;5715;48.234;14.320;2023-06-14T07:15:00;98292.00;;;27.70
11321;BMP180;5715;48.234;14.320;2023-06-14T07:17:47;98299.00;;;27.90
11321;BMP180;5715;48.234;14.320;2023-06-14T07:20:35;98301.00;;;27.70
11321;BMP180;5715;48.234;14.320;2023-06-14T07:23:25;98302.00;;;27.60
11321;BMP180;5715;48.234;14.320;2023-06-14T07:26:13;98290.00;;;27.30
11321;BMP180;5715;48.234;14.320;2023-06-14T07:29:01;98289.00;;;27.60
11321;BMP180;5715;48.234;14.320;2023-06-14T07:31:48;98294.00;;;27.40
11321;BMP180;5715;48.234;14.320;2023-06-14T07:34:36;98294.00;;;27.80
11321;BMP180;5715;48.234;14.320;2023-06-14T07:37:23;98297.00;;;27.80
11321;BMP180;5715;48.234;14.320;2023-06-14T07:40:12;98281.00;;;27.90
11321;BMP180;5715;48.234;14.320;2023-06-14T07:43:00;98292.00;;;27.90
11321;BMP180;5715;48.234;14.320;2023-06-14T07:45:49;98294.00;;;28.00
11321;BMP180;5715;48.234;14.320;2023-06-14T07:48:53;98290.00;;;27.70
11321;BMP180;5715;48.234;14.320;2023-06-14T07:51:41;98297.00;;;28.00
11321;BMP180;5715;48.234;14.320;2023-06-14T07:54:28;98291.00;;;28.30
11321;BMP180;5715;48.234;14.320;2023-06-14T07:57:17;98290.00;;;28.80
11321;BMP180;5715;48.234;14.320;2023-06-14T08:00:08;98295.00;;;28.90
11321;BMP180;5715;48.234;14.320;2023-06-14T08:02:58;98287.00;;;29.10
11321;BMP180;5715;48.234;14.320;2023-06-14T08:05:48;98294.00;;;29.30
11321;BMP180;5715;48.234;14.320;2023-06-14T08:08:36;98297.00;;;28.90
11321;BMP180;5715;48.234;14.320;2023-06-14T08:11:23;98293.00;;;29.40
11321;BMP180;5715;48.234;14.320;2023-06-14T08:14:11;98290.00;;;29.00
11321;BMP180;5715;48.234;14.320;2023-06-14T08:16:59;98301.00;;;29.30
11321;BMP180;5715;48.234;14.320;2023-06-14T08:19:47;98297.00;;;29.60
11321;BMP180;5715;48.234;14.320;2023-06-14T08:22:35;98294.00;;;28.80
11321;BMP180;5715;48.234;14.320;2023-06-14T08:25:23;98301.00;;;29.50
11321;BMP180;5715;48.234;14.320;2023-06-14T08:28:11;98301.00;;;29.60
11321;BMP180;5715;48.234;14.320;2023-06-14T08:30:59;98296.00;;;29.50
11321;BMP180;5715;48.234;14.320;2023-06-14T08:33:46;98300.00;;;29.80
11321;BMP180;5715;48.234;14.320;2023-06-14T08:36:35;98296.00;;;29.50
11321;BMP180;5715;48.234;14.320;2023-06-14T08:39:23;98298.00;;;29.50
11321;BMP180;5715;48.234;14.320;2023-06-14T08:42:12;98302.00;;;29.70
11321;BMP180;5715;48.234;14.320;2023-06-14T08:45:19;98300.00;;;29.80
11321;BMP180;5715;48.234;14.320;2023-06-14T08:48:10;98312.00;;;30.30
11321;BMP180;5715;48.234;14.320;2023-06-14T08:51:04;98299.00;;;30.20
11321;BMP180;5715;48.234;14.320;2023-06-14T08:53:56;98302.00;;;30.50
11321;BMP180;5715;48.234;14.320;2023-06-14T08:56:49;98306.00;;;30.50
11321;BMP180;5715;48.234;14.320;2023-06-14T08:59:47;98299.00;;;30.60
11321;BMP180;5715;48.234;14.320;2023-06-14T09:02:40;98311.00;;;30.10
11321;BMP180;5715;48.234;14.320;2023-06-14T09:05:33;98308.00;;;30.30
11321;BMP180;5715;48.234;14.320;2023-06-14T09:08:21;98305.00;;;30.20
11321;BMP180;5715;48.234;14.320;2023-06-14T09:11:13;98304.00;;;30.20
11321;BMP180;5715;48.234;14.320;2023-06-14T09:14:02;98307.00;;;30.30
11321;BMP180;5715;48.234;14.320;2023-06-14T09:16:54;98309.00;;;30.70
11321;BMP180;5715;48.234;14.320;2023-06-14T09:19:42;98308.00;;;31.10
11321;BMP180;5715;48.234;14.320;2023-06-14T09:22:30;98303.00;;;31.30
11321;BMP180;5715;48.234;14.320;2023-06-14T09:25:18;98301.00;;;30.60
11321;BMP180;5715;48.234;14.320;2023-06-14T09:28:28;98309.00;;;30.80
11321;BMP180;5715;48.234;14.320;2023-06-14T09:31:19;98309.00;;;30.80
11321;BMP180;5715;48.234;14.320;2023-06-14T09:34:07;98305.00;;;30.40
11321;BMP180;5715;48.234;14.320;2023-06-14T09:36:56;98307.00;;;30.20
11321;BMP180;5715;48.234;14.320;2023-06-14T09:39:53;98297.00;;;30.60
11321;BMP180;5715;48.234;14.320;2023-06-14T09:42:40;98304.00;;;31.00
11321;BMP180;5715;48.234;14.320;2023-06-14T09:45:29;98304.00;;;31.20
11321;BMP180;5715;48.234;14.320;2023-06-14T09:48:18;98301.00;;;31.50
11321;BMP180;5715;48.234;14.320;2023-06-14T09:51:06;98300.00;;;31.40
11321;BMP180;5715;48.234;14.320;2023-06-14T09:54:00;98306.00;;;31.10
11321;BMP180;5715;48.234;14.320;2023-06-14T09:56:51;98308.00;;;31.00
11321;BMP180;5715;48.234;14.320;2023-06-14T09:59:45;98303.00;;;31.30
11321;BMP180;5715;48.234;14.320;2023-06-14T10:02:36;98299.00;;;31.40
11321;BMP180;5715;48.234;14.320;2023-06-14T10:05:30;98301.00;;;31.60
11321;BMP180;5715;48.234;14.320;2023-06-14T10:08:24;98307.00;;;31.50
11321;BMP180;5715;48.234;14.320;2023-06-14T10:11:17;98301.00;;;31.70
11321;BMP180;5715;48.234;14.320;2023-06-14T10:14:06;98291.00;;;31.50
11321;BMP180;5715;48.234;14.320;2023-06-14T10:17:04;98297.00;;;31.90
11321;BMP180;5715;48.234;14.320;2023-06-14T10:20:26;98296.00;;;31.80
11321;BMP180;5715;48.234;14.320;2023-06-14T10:23:22;98291.00;;;32.00
11321;BMP180;5715;48.234;14.320;2023-06-14T10:26:22;98284.00;;;31.50
11321;BMP180;5715;48.234;14.320;2023-06-14T10:29:10;98284.00;;;31.70
11321;BMP180;5715;48.234;14.320;2023-06-14T10:32:00;98292.00;;;32.20
11321;BMP180;5715;48.234;14.320;2023-06-14T10:34:59;98281.00;;;32.00
11321;BMP180;5715;48.234;14.320;2023-06-14T10:37:47;98285.00;;;32.40
11321;BMP180;5715;48.234;14.320;2023-06-14T10:40:36;98284.00;;;32.60
11321;BMP180;5715;48.234;14.320;2023-06-14T10:43:25;98275.00;;;32.70
11321;BMP180;5715;48.234;14.320;2023-06-14T10:46:18;98282.00;;;32.40
11321;BMP180;5715;48.234;14.320;2023-06-14T10:49:09;98280.00;;;31.90
11321;BMP180;5715;48.234;14.320;2023-06-14T10:51:57;98286.00;;;32.60
11321;BMP180;5715;48.234;14.320;2023-06-14T10:58:06;98283.00;;;32.20
11321;BMP180;5715;48.234;14.320;2023-06-14T11:00:54;98288.00;;;31.80
11321;BMP180;5715;48.234;14.320;2023-06-14T11:04:06;98274.00;;;31.90
11321;BMP180;5715;48.234;14.320;2023-06-14T11:07:08;98272.00;;;32.50
11321;BMP180;5715;48.234;14.320;2023-06-14T11:13:19;98269.00;;;32.30
11321;BMP180;5715;48.234;14.320;2023-06-14T11:16:18;98267.00;;;32.30
11321;BMP180;5715;48.234;14.320;2023-06-14T11:19:10;98256.00;;;32.20
11321;BMP180;5715;48.234;14.320;2023-06-14T11:21:58;98254.00;;;32.10
11321;BMP180;5715;48.234;14.320;2023-06-14T11:24:46;98255.00;;;32.60
11321;BMP180;5715;48.234;14.320;2023-06-14T11:27:34;98255.00;;;32.80
11321;BMP180;5715;48.234;14.320;2023-06-14T11:30:23;98257.00;;;33.10
11321;BMP180;5715;48.234;14.320;2023-06-14T11:33:17;98257.00;;;33.20
11321;BMP180;5715;48.234;14.320;2023-06-14T11:36:08;98252.00;;;33.00
11321;BMP180;5715;48.234;14.320;2023-06-14T11:39:07;98254.00;;;33.30
11321;BMP180;5715;48.234;14.320;2023-06-14T11:41:54;98255.00;;;32.70
11321;BMP180;5715;48.234;14.320;2023-06-14T11:44:46;98257.00;;;32.60
11321;BMP180;5715;48.234;14.320;2023-06-14T11:47:35;98252.00;;;32.50
11321;BMP180;5715;48.234;14.320;2023-06-14T11:50:24;98251.00;;;32.00
11321;BMP180;5715;48.234;14.320;2023-06-14T11:53:12;98249.00;;;32.20
11321;BMP180;5715;48.234;14.320;2023-06-14T11:56:00;98242.00;;;31.80
11321;BMP180;5715;48.234;14.320;2023-06-14T11:58:49;98251.00;;;31.80
11321;BMP180;5715;48.234;14.320;2023-06-14T12:01:37;98246.00;;;31.70
11321;BMP180;5715;48.234;14.320;2023-06-14T12:04:29;98254.00;;;31.50
11321;BMP180;5715;48.234;14.320;2023-06-14T12:07:18;98248.00;;;31.40
11321;BMP180;5715;48.234;14.320;2023-06-14T12:10:08;98246.00;;;31.50
11321;BMP180;5715;48.234;14.320;2023-06-14T12:12:58;98245.00;;;31.50
11321;BMP180;5715;48.234;14.320;2023-06-14T12:15:55;98245.00;;;31.30
11321;BMP180;5715;48.234;14.320;2023-06-14T12:18:43;98244.00;;;31.30
11321;BMP180;5715;48.234;14.320;2023-06-14T12:21:32;98242.00;;;31.70
11321;BMP180;5715;48.234;14.320;2023-06-14T12:24:20;98250.00;;;31.50
11321;BMP180;5715;48.234;14.320;2023-06-14T12:27:08;98252.00;;;31.70
11321;BMP180;5715;48.234;14.320;2023-06-14T12:30:03;98253.00;;;31.60
11321;BMP180;5715;48.234;14.320;2023-06-14T12:32:52;98248.00;;;31.00
11321;BMP180;5715;48.234;14.320;2023-06-14T12:35:40;98255.00;;;31.20
11321;BMP180;5715;48.234;14.320;2023-06-14T12:38:27;98253.00;;;30.80
11321;BMP180;5715;48.234;14.320;2023-06-14T12:41:15;98265.00;;;30.40
11321;BMP180;5715;48.234;14.320;2023-06-14T12:44:03;98253.00;;;29.20
11321;BMP180;5715;48.234;14.320;2023-06-14T12:46:53;98255.00;;;29.40
11321;BMP180;5715;48.234;14.320;2023-06-14T12:49:42;98258.00;;;27.80
11321;BMP180;5715;48.234;14.320;2023-06-14T12:52:29;98262.00;;;27.10
11321;BMP180;5715;48.234;14.320;2023-06-14T12:55:17;98263.00;;;27.60
11321;BMP180;5715;48.234;14.320;2023-06-14T12:58:07;98262.00;;;27.30
11321;BMP180;5715;48.234;14.320;2023-06-14T13:00:54;98264.00;;;27.70
11321;BMP180;5715;48.234;14.320;2023-06-14T13:03:42;98265.00;;;27.60
11321;BMP180;5715;48.234;14.320;2023-06-14T13:06:30;98273.00;;;27.50
11321;BMP180;5715;48.234;14.320;2023-06-14T13:09:18;98271.00;;;27.50
11321;BMP180;5715;48.234;14.320;2023-06-14T13:12:07;98272.00;;;28.40
11321;BMP180;5715;48.234;14.320;2023-06-14T13:14:55;98279.00;;;28.30
11321;BMP180;5715;48.234;14.320;2023-06-14T13:17:43;98273.00;;;28.40
11321;BMP180;5715;48.234;14.320;2023-06-14T13:20:35;98274.00;;;29.20
11321;BMP180;5715;48.234;14.320;2023-06-14T13:23:23;98261.00;;;29.60
11321;BMP180;5715;48.234;14.320;2023-06-14T13:26:11;98258.00;;;29.70
11321;BMP180;5715;48.234;14.320;2023-06-14T13:28:59;98257.00;;;30.00
11321;BMP180;5715;48.234;14.320;2023-06-14T13:31:47;98262.00;;;30.10
11321;BMP180;5715;48.234;14.320;2023-06-14T13:34:34;98248.00;;;30.20
11321;BMP180;5715;48.234;14.320;2023-06-14T13:37:22;98252.00;;;30.10
11321;BMP180;5715;48.234;14.320;2023-06-14T13:40:11;98248.00;;;30.10
11321;BMP180;5715;48.234;14.320;2023-06-14T13:42:58;98246.00;;;30.10
11321;BMP180;5715;48.234;14.320;2023-06-14T13:45:46;98249.00;;;30.30
11321;BMP180;5715;48.234;14.320;2023-06-14T13:48:33;98240.00;;;30.10
11321;BMP180;5715;48.234;14.320;2023-06-14T13:51:21;98235.00;;;30.30
11321;BMP180;5715;48.234;14.320;2023-06-14T13:54:11;98234.00;;;30.30
11321;BMP180;5715;48.234;14.320;2023-06-14T13:56:59;98228.00;;;31.00
11321;BMP180;5715;48.234;14.320;2023-06-14T13:59:47;98235.00;;;31.50
11321;BMP180;5715;48.234;14.320;2023-06-14T14:02:35;98236.00;;;32.00
11321;BMP180;5715;48.234;14.320;2023-06-14T14:05:23;98243.00;;;32.50
11321;BMP180;5715;48.234;14.320;2023-06-14T14:08:16;98233.00;;;33.10
11321;BMP180;5715;48.234;14.320;2023-06-14T14:11:03;98237.00;;;33.30
11321;BMP180;5715;48.234;14.320;2023-06-14T14:13:51;98241.00;;;33.00
11321;BMP180;5715;48.234;14.320;2023-06-14T14:16:38;98240.00;;;33.00
11321;BMP180;5715;48.234;14.320;2023-06-14T14:19:26;98244.00;;;33.60
11321;BMP180;5715;48.234;14.320;2023-06-14T14:22:14;98241.00;;;33.40
11321;BMP180;5715;48.234;14.320;2023-06-14T14:25:01;98238.00;;;34.00
11321;BMP180;5715;48.234;14.320;2023-06-14T14:27:49;98243.00;;;33.70
11321;BMP180;5715;48.234;14.320;2023-06-14T14:30:36;98244.00;;;34.00
11321;BMP180;5715;48.234;14.320;2023-06-14T14:33:27;98238.00;;;33.20
11321;BMP180;5715;48.234;14.320;2023-06-14T14:36:14;98238.00;;;33.80
11321;BMP180;5715;48.234;14.320;2023-06-14T14:39:02;98239.00;;;34.00
11321;BMP180;5715;48.234;14.320;2023-06-14T14:41:50;98239.00;;;33.50
11321;BMP180;5715;48.234;14.320;2023-06-14T14:44:39;98247.00;;;34.20
11321;BMP180;5715;48.234;14.320;2023-06-14T14:47:26;98245.00;;;33.50
11321;BMP180;5715;48.234;14.320;2023-06-14T14:50:14;98243.00;;;33.40
11321;BMP180;5715;48.234;14.320;2023-06-14T14:53:02;98248.00;;;33.50
11321;BMP180;5715;48.234;14.320;2023-06-14T14:55:50;98242.00;;;33.30
11321;BMP180;5715;48.234;14.320;2023-06-14T14:58:38;98245.00;;;33.20
11321;BMP180;5715;48.234;14.320;2023-06-14T15:01:25;98243.00;;;33.40
11321;BMP180;5715;48.234;14.320;2023-06-14T15:04:13;98236.00;;;33.30
11321;BMP180;5715;48.234;14.320;2023-06-14T15:07:01;98228.00;;;33.10
11321;BMP180;5715;48.234;14.320;2023-06-14T15:09:48;98239.00;;;33.20
11321;BMP180;5715;48.234;14.320;2023-06-14T15:12:38;98242.00;;;33.50
11321;BMP180;5715;48.234;14.320;2023-06-14T15:15:25;98236.00;;;33.20
11321;BMP180;5715;48.234;14.320;2023-06-14T15:18:13;98236.00;;;33.60
11321;BMP180;5715;48.234;14.320;2023-06-14T15:21:02;98235.00;;;33.20
11321;BMP180;5715;48.234;14.320;2023-06-14T15:23:50;98236.00;;;32.80
11321;BMP180;5715;48.234;14.320;2023-06-14T15:26:38;98238.00;;;32.60
11321;BMP180;5715;48.234;14.320;2023-06-14T15:29:26;98237.00;;;33.00
11321;BMP180;5715;48.234;14.320;2023-06-14T15:32:13;98246.00;;;32.80
11321;BMP180;5715;48.234;14.320;2023-06-14T15:35:01;98251.00;;;32.80
11321;BMP180;5715;48.234;14.320;2023-06-14T15:37:48;98246.00;;;32.00
11321;BMP180;5715;48.234;14.320;2023-06-14T15:40:36;98239.00;;;32.60
11321;BMP180;5715;48.234;14.320;2023-06-14T15:43:24;98239.00;;;32.70
11321;BMP180;5715;48.234;14.320;2023-06-14T15:46:11;98237.00;;;32.20
11321;BMP180;5715;48.234;14.320;2023-06-14T15:48:59;98236.00;;;32.50
11321;BMP180;5715;48.234;14.320;2023-06-14T15:51:47;98227.00;;;32.20
11321;BMP180;5715;48.234;14.320;2023-06-14T15:54:34;98236.00;;;32.00
11321;BMP180;5715;48.234;14.320;2023-06-14T15:57:22;98229.00;;;31.90
11321;BMP180;5715;48.234;14.320;2023-06-14T16:00:10;98228.00;;;32.30
11321;BMP180;5715;48.234;14.320;2023-06-14T16:02:58;98222.00;;;32.60
11321;BMP180;5715;48.234;14.320;2023-06-14T16:05:46;98236.00;;;32.80
11321;BMP180;5715;48.234;14.320;2023-06-14T16:08:35;98236.00;;;33.00
11321;BMP180;5715;48.234;14.320;2023-06-14T16:11:27;98251.00;;;32.60
11321;BMP180;5715;48.234;14.320;2023-06-14T16:14:15;98247.00;;;32.90
11321;BMP180;5715;48.234;14.320;2023-06-14T16:17:03;98245.00;;;32.70
11321;BMP180;5715;48.234;14.320;2023-06-14T16:19:51;98251.00;;;32.50
11321;BMP180;5715;48.234;14.320;2023-06-14T16:22:39;98247.00;;;32.70
11321;BMP180;5715;48.234;14.320;2023-06-14T16:25:26;98250.00;;;32.90